Flight Track Log - Related Links

Times and Time Zones

All times are in EDT time to prevent confusion due to time zone crossing. See the GGA1 flight status page for this flight to view local times or setup timezone preferences in your user account.

Time Position Orientation Groundspeed Altitude Reporting Facility
EDT Latitude Longitude Course Direction KTS MPH feet Rate Location/Type
Thu 06:35:16 AM 33.9833 -83.2333 48° Northeast 161 185 3,800  Level Atlanta TRACON
Thu 06:36:43 AM 34.0208 -83.1742 53° Northeast 174 200 5,900 1,714 Climbing Atlanta Center
Thu 06:37:43 AM 34.0539 -83.1336 45° Northeast 174 200 8,000 2,050 Climbing Atlanta Center
Thu 06:38:43 AM 34.0933 -83.0956 39° Northeast 174 200 10,000 2,000 Climbing Atlanta Center
Thu 06:39:00 AM 34.2476 -82.9255 48° Northeast  Level FlightAware Approximate
Thu 06:39:43 AM 34.1408 -83.0525 37° Northeast 180 207 12,000  Level Atlanta Center
Thu 06:40:00 AM 34.2987 -82.8573 48° Northeast  Level FlightAware Approximate
Thu 06:40:43 AM 34.1803 -83.0117 41° Northeast 180 207 14,100  Level Atlanta Center
Thu 06:41:43 AM 34.2236 -82.9686 39° Northeast 185 213 15,800 1,700 Climbing Atlanta Center
Thu 06:42:43 AM 34.2692 -82.9303 35° Northeast 192 221 17,500 1,650 Climbing Atlanta Center
Thu 06:43:43 AM 34.3128 -82.8844 41° Northeast 204 235 19,100 1,650 Climbing Atlanta Center
Thu 06:44:43 AM 34.3603 -82.8411 37° Northeast 204 235 20,800 950 Climbing Atlanta Center
Thu 06:45:43 AM 34.4139 -82.7822 42° Northeast 234 269 21,000 100 Climbing Atlanta Center
Thu 06:46:43 AM 34.4800 -82.7258 35° Northeast 274 315 21,000  Level Atlanta Center
Thu 06:47:43 AM 34.5358 -82.6669 41° Northeast 283 326 21,000  Level Atlanta Center
Thu 06:48:43 AM 34.5978 -82.6006 41° Northeast 288 331 21,000  Level Atlanta Center
Thu 06:49:43 AM 34.6658 -82.5386 37° Northeast 293 337 21,000  Level Atlanta Center
Thu 06:50:43 AM 34.7275 -82.4744 41° Northeast 293 337 21,000  Level Atlanta Center
Thu 06:51:43 AM 34.7936 -82.4100 39° Northeast 298 343 21,000  Level Atlanta Center
Thu 06:52:43 AM 34.8656 -82.3400 39° Northeast 298 343 21,000  Level Atlanta Center
Thu 06:53:43 AM 34.9294 -82.2756 40° Northeast 298 343 21,000  Level Atlanta Center
Thu 06:54:43 AM 34.9953 -82.2158 37° Northeast 298 343 21,000  Level Atlanta Center
Thu 06:55:43 AM 35.0592 -82.1508 40° Northeast 293 337 21,000  Level Atlanta Center
Thu 06:56:43 AM 35.1206 -82.0886 40° Northeast 293 337 21,000  Level Atlanta Center
Thu 06:57:43 AM 35.1864 -82.0236 39° Northeast 293 337 21,000  Level Atlanta Center
Thu 06:58:43 AM 35.2500 -81.9583 40° Northeast 298 343 21,000  Level Atlanta Center
Thu 06:59:43 AM 35.3114 -81.8958 40° Northeast 293 337 21,000  Level Atlanta Center
Thu 07:00:43 AM 35.3772 -81.8303 39° Northeast 293 337 21,000  Level Atlanta Center
Thu 07:01:43 AM 35.4325 -81.7728 40° Northeast 293 337 21,000  Level Atlanta Center
Thu 07:02:43 AM 35.4958 -81.7097 39° Northeast 293 337 21,000  Level Atlanta Center
Thu 07:03:43 AM 35.5528 -81.6317 48° Northeast 298 343 21,000  Level Atlanta Center
Thu 07:04:43 AM 35.6011 -81.5458 55° Northeast 299 344 21,000  Level Atlanta Center
Thu 07:05:43 AM 35.6597 -81.4572 51° Northeast 299 344 21,000  Level Atlanta Center
Thu 07:06:43 AM 35.7103 -81.3739 53° Northeast 299 344 21,000 -200 Level Atlanta Center
Thu 07:07:43 AM 35.7625 -81.2903 52° Northeast 305 351 20,600 -750 Descending Atlanta Center
Thu 07:08:43 AM 35.8169 -81.2014 53° Northeast 312 359 19,500 -1,100 Descending Atlanta Center
Thu 07:09:43 AM 35.8733 -81.1147 51° Northeast 317 365 18,400 -950 Descending Atlanta Center
Thu 07:10:43 AM 35.9233 -81.0336 53° Northeast 317 365 17,600 -1,000 Descending Atlanta Center
Thu 07:11:43 AM 35.9775 -80.9469 52° Northeast 317 365 16,400 -1,190 Descending Atlanta Center
Thu 07:12:44 AM 36.0297 -80.8600 53° Northeast 317 365 15,200 -1,250 Descending Atlanta Center
Thu 07:13:43 AM 36.0856 -80.7681 53° Northeast 329 379 13,900 -1,441 Descending Atlanta Center
Thu 07:15:43 AM 36.1575 -80.5747 65° Northeast 303 349 10,900 -1,167 Descending Atlanta Center
Thu 07:16:43 AM 36.1381 -80.4753 104° East 292 336 10,400 -1,150 Descending Atlanta Center
Thu 07:17:43 AM 36.1056 -80.3689 111° Southeast 292 336 8,600 -1,700 Descending Atlanta Center
Thu 07:18:43 AM 36.0756 -80.2750 112° Southeast 297 342 7,000 -1,650 Descending Atlanta Center
Thu 07:19:43 AM 36.0403 -80.2100 124° Southeast 266 306 5,300 -1,835 Descending Atlanta Center
Thu 07:20:44 AM 36.0642 -80.1781 47° Northeast 137 158 3,300 -1,550 Descending Atlanta Center
Thu 07:21:43 AM 36.0911 -80.1664 19° North 95 109 2,200 -1,119 Descending Atlanta Center
Thu 07:24:00 AM 36.1333 -80.2167 292° West  Level FlightAware Approximate
Thu 07:31:00 AM 36.1337 -80.2220 292° West  Level Estimated

Login

Don't have an account? Register now (free) for customized features, flight alerts, and more!